sensor_id;sensor_type;location;lat;lon;timestamp;temperature;humidity
3548;DHT22;1788;49.400;11.092;2023-05-07T00:02:25;15.90;55.20
3548;DHT22;1788;49.400;11.092;2023-05-07T00:04:51;15.90;55.10
3548;DHT22;1788;49.400;11.092;2023-05-07T00:07:19;15.90;55.20
3548;DHT22;1788;49.400;11.092;2023-05-07T00:09:45;15.80;55.20
3548;DHT22;1788;49.400;11.092;2023-05-07T00:12:12;15.80;55.20
3548;DHT22;1788;49.400;11.092;2023-05-07T00:14:38;15.80;55.20
3548;DHT22;1788;49.400;11.092;2023-05-07T00:17:05;15.80;55.30
3548;DHT22;1788;49.400;11.092;2023-05-07T00:19:32;15.80;55.40
3548;DHT22;1788;49.400;11.092;2023-05-07T00:21:59;15.90;55.50
3548;DHT22;1788;49.400;11.092;2023-05-07T00:24:26;15.90;55.50
3548;DHT22;1788;49.400;11.092;2023-05-07T00:26:53;15.90;55.70
3548;DHT22;1788;49.400;11.092;2023-05-07T00:29:20;15.80;55.60
3548;DHT22;1788;49.400;11.092;2023-05-07T00:31:46;15.90;55.70
3548;DHT22;1788;49.400;11.092;2023-05-07T00:34:13;15.90;55.70
3548;DHT22;1788;49.400;11.092;2023-05-07T00:36:39;15.90;55.70
3548;DHT22;1788;49.400;11.092;2023-05-07T00:39:07;15.90;55.80
3548;DHT22;1788;49.400;11.092;2023-05-07T00:41:33;15.90;55.80
3548;DHT22;1788;49.400;11.092;2023-05-07T00:44:01;15.90;55.50
3548;DHT22;1788;49.400;11.092;2023-05-07T00:46:27;15.90;55.80
3548;DHT22;1788;49.400;11.092;2023-05-07T00:48:54;15.90;55.90
3548;DHT22;1788;49.400;11.092;2023-05-07T00:51:21;15.90;55.90
3548;DHT22;1788;49.400;11.092;2023-05-07T00:53:47;16.00;56.00
3548;DHT22;1788;49.400;11.092;2023-05-07T00:56:15;16.00;56.10
3548;DHT22;1788;49.400;11.092;2023-05-07T00:58:41;16.00;56.00
3548;DHT22;1788;49.400;11.092;2023-05-07T01:01:09;16.00;56.10
3548;DHT22;1788;49.400;11.092;2023-05-07T01:03:35;16.00;56.10
3548;DHT22;1788;49.400;11.092;2023-05-07T01:06:02;16.00;56.10
3548;DHT22;1788;49.400;11.092;2023-05-07T01:08:28;16.00;56.10
3548;DHT22;1788;49.400;11.092;2023-05-07T01:10:56;16.00;56.10
3548;DHT22;1788;49.400;11.092;2023-05-07T01:13:22;16.00;56.20
3548;DHT22;1788;49.400;11.092;2023-05-07T01:15:50;16.00;56.20
3548;DHT22;1788;49.400;11.092;2023-05-07T01:18:16;16.10;56.30
3548;DHT22;1788;49.400;11.092;2023-05-07T01:20:43;16.10;56.90
3548;DHT22;1788;49.400;11.092;2023-05-07T01:23:11;16.00;56.30
3548;DHT22;1788;49.400;11.092;2023-05-07T01:25:38;16.10;56.40
3548;DHT22;1788;49.400;11.092;2023-05-07T01:28:04;16.10;56.40
3548;DHT22;1788;49.400;11.092;2023-05-07T01:30:31;16.10;56.50
3548;DHT22;1788;49.400;11.092;2023-05-07T01:35:27;16.10;56.60
3548;DHT22;1788;49.400;11.092;2023-05-07T01:37:52;16.00;56.50
3548;DHT22;1788;49.400;11.092;2023-05-07T01:40:20;16.00;57.20
3548;DHT22;1788;49.400;11.092;2023-05-07T01:42:47;16.00;56.60
3548;DHT22;1788;49.400;11.092;2023-05-07T01:45:14;16.00;56.60
3548;DHT22;1788;49.400;11.092;2023-05-07T01:47:40;16.00;56.70
3548;DHT22;1788;49.400;11.092;2023-05-07T01:50:07;16.00;56.70
3548;DHT22;1788;49.400;11.092;2023-05-07T01:52:34;16.00;56.80
3548;DHT22;1788;49.400;11.092;2023-05-07T01:55:01;16.10;57.00
3548;DHT22;1788;49.400;11.092;2023-05-07T01:57:27;16.00;56.90
3548;DHT22;1788;49.400;11.092;2023-05-07T01:59:55;16.10;57.00
3548;DHT22;1788;49.400;11.092;2023-05-07T02:02:22;16.00;56.90
3548;DHT22;1788;49.400;11.092;2023-05-07T02:04:49;16.10;57.00
3548;DHT22;1788;49.400;11.092;2023-05-07T02:07:15;16.10;57.00
3548;DHT22;1788;49.400;11.092;2023-05-07T02:09:43;16.10;57.60
3548;DHT22;1788;49.400;11.092;2023-05-07T02:12:09;16.00;57.00
3548;DHT22;1788;49.400;11.092;2023-05-07T02:14:36;16.10;57.00
3548;DHT22;1788;49.400;11.092;2023-05-07T02:17:02;16.00;57.00
3548;DHT22;1788;49.400;11.092;2023-05-07T02:19:29;16.00;57.00
3548;DHT22;1788;49.400;11.092;2023-05-07T02:21:56;16.00;57.20
3548;DHT22;1788;49.400;11.092;2023-05-07T02:24:23;16.00;57.10
3548;DHT22;1788;49.400;11.092;2023-05-07T02:26:50;16.00;57.20
3548;DHT22;1788;49.400;11.092;2023-05-07T02:29:18;16.00;57.20
3548;DHT22;1788;49.400;11.092;2023-05-07T02:31:45;16.00;57.20
3548;DHT22;1788;49.400;11.092;2023-05-07T02:34:12;15.90;57.10
3548;DHT22;1788;49.400;11.092;2023-05-07T02:36:39;15.90;57.20
3548;DHT22;1788;49.400;11.092;2023-05-07T02:39:05;15.90;57.20
3548;DHT22;1788;49.400;11.092;2023-05-07T02:41:32;15.80;57.70
3548;DHT22;1788;49.400;11.092;2023-05-07T02:43:59;15.80;57.20
3548;DHT22;1788;49.400;11.092;2023-05-07T02:46:27;15.70;57.20
3548;DHT22;1788;49.400;11.092;2023-05-07T02:48:54;15.70;57.20
3548;DHT22;1788;49.400;11.092;2023-05-07T02:51:21;15.70;57.20
3548;DHT22;1788;49.400;11.092;2023-05-07T02:53:48;15.60;57.40
3548;DHT22;1788;49.400;11.092;2023-05-07T02:56:15;15.60;57.30
3548;DHT22;1788;49.400;11.092;2023-05-07T02:58:42;15.50;57.40
3548;DHT22;1788;49.400;11.092;2023-05-07T03:01:09;15.50;57.40
3548;DHT22;1788;49.400;11.092;2023-05-07T03:03:36;15.50;57.50
3548;DHT22;1788;49.400;11.092;2023-05-07T03:06:03;15.40;57.40
3548;DHT22;1788;49.400;11.092;2023-05-07T03:08:30;15.40;57.50
3548;DHT22;1788;49.400;11.092;2023-05-07T03:10:57;15.40;57.50
3548;DHT22;1788;49.400;11.092;2023-05-07T03:13:24;15.30;57.50
3548;DHT22;1788;49.400;11.092;2023-05-07T03:15:51;15.30;57.50
3548;DHT22;1788;49.400;11.092;2023-05-07T03:18:18;15.30;57.70
3548;DHT22;1788;49.400;11.092;2023-05-07T03:20:45;15.20;57.60
3548;DHT22;1788;49.400;11.092;2023-05-07T03:23:12;15.20;58.30
3548;DHT22;1788;49.400;11.092;2023-05-07T03:25:39;15.20;57.60
3548;DHT22;1788;49.400;11.092;2023-05-07T03:28:06;15.20;57.70
3548;DHT22;1788;49.400;11.092;2023-05-07T03:30:32;15.10;57.60
3548;DHT22;1788;49.400;11.092;2023-05-07T03:33:00;15.10;57.70
3548;DHT22;1788;49.400;11.092;2023-05-07T03:35:26;15.10;57.70
3548;DHT22;1788;49.400;11.092;2023-05-07T03:37:53;15.00;57.70
3548;DHT22;1788;49.400;11.092;2023-05-07T03:40:20;15.00;57.70
3548;DHT22;1788;49.400;11.092;2023-05-07T03:42:46;15.00;57.80
3548;DHT22;1788;49.400;11.092;2023-05-07T03:45:13;14.90;57.80
3548;DHT22;1788;49.400;11.092;2023-05-07T03:47:39;14.90;57.90
3548;DHT22;1788;49.400;11.092;2023-05-07T03:50:06;14.90;57.90
3548;DHT22;1788;49.400;11.092;2023-05-07T03:52:33;14.90;58.00
3548;DHT22;1788;49.400;11.092;2023-05-07T03:55:01;14.80;57.90
3548;DHT22;1788;49.400;11.092;2023-05-07T03:57:28;14.80;58.00
3548;DHT22;1788;49.400;11.092;2023-05-07T03:59:54;14.80;58.00
3548;DHT22;1788;49.400;11.092;2023-05-07T04:02:21;14.80;58.00
3548;DHT22;1788;49.400;11.092;2023-05-07T04:04:48;14.80;58.00
3548;DHT22;1788;49.400;11.092;2023-05-07T04:07:14;14.80;58.10
3548;DHT22;1788;49.400;11.092;2023-05-07T04:09:41;14.80;58.10
3548;DHT22;1788;49.400;11.092;2023-05-07T04:12:07;14.70;58.00
3548;DHT22;1788;49.400;11.092;2023-05-07T04:14:34;14.80;58.20
3548;DHT22;1788;49.400;11.092;2023-05-07T04:17:00;14.70;58.10
3548;DHT22;1788;49.400;11.092;2023-05-07T04:19:27;14.70;58.10
3548;DHT22;1788;49.400;11.092;2023-05-07T04:21:54;14.70;58.10
3548;DHT22;1788;49.400;11.092;2023-05-07T04:24:22;14.70;58.20
3548;DHT22;1788;49.400;11.092;2023-05-07T04:26:49;14.70;58.20
3548;DHT22;1788;49.400;11.092;2023-05-07T04:29:16;14.80;58.30
3548;DHT22;1788;49.400;11.092;2023-05-07T04:31:43;14.70;58.20
3548;DHT22;1788;49.400;11.092;2023-05-07T04:34:10;14.80;58.40
3548;DHT22;1788;49.400;11.092;2023-05-07T04:36:37;14.80;58.40
3548;DHT22;1788;49.400;11.092;2023-05-07T04:39:04;14.80;58.50
3548;DHT22;1788;49.400;11.092;2023-05-07T04:41:30;14.80;58.50
3548;DHT22;1788;49.400;11.092;2023-05-07T04:43:57;14.80;58.50
3548;DHT22;1788;49.400;11.092;2023-05-07T04:46:24;14.90;58.70
3548;DHT22;1788;49.400;11.092;2023-05-07T04:48:51;14.90;58.70
3548;DHT22;1788;49.400;11.092;2023-05-07T04:51:17;14.90;58.80
3548;DHT22;1788;49.400;11.092;2023-05-07T04:53:44;15.00;58.90
3548;DHT22;1788;49.400;11.092;2023-05-07T04:56:11;15.00;58.90
3548;DHT22;1788;49.400;11.092;2023-05-07T04:58:37;15.10;58.90
3548;DHT22;1788;49.400;11.092;2023-05-07T05:01:05;15.10;58.90
3548;DHT22;1788;49.400;11.092;2023-05-07T05:03:31;15.20;59.00
3548;DHT22;1788;49.400;11.092;2023-05-07T05:05:58;15.20;59.00
3548;DHT22;1788;49.400;11.092;2023-05-07T05:08:25;15.30;59.10
3548;DHT22;1788;49.400;11.092;2023-05-07T05:10:51;15.30;59.10
3548;DHT22;1788;49.400;11.092;2023-05-07T05:13:18;15.40;59.20
3548;DHT22;1788;49.400;11.092;2023-05-07T05:15:44;15.40;59.20
3548;DHT22;1788;49.400;11.092;2023-05-07T05:18:12;15.60;59.50
3548;DHT22;1788;49.400;11.092;2023-05-07T05:20:38;15.60;59.50
3548;DHT22;1788;49.400;11.092;2023-05-07T05:23:07;15.70;59.60
3548;DHT22;1788;49.400;11.092;2023-05-07T05:25:32;15.70;59.50
3548;DHT22;1788;49.400;11.092;2023-05-07T05:27:59;15.80;59.60
3548;DHT22;1788;49.400;11.092;2023-05-07T05:30:26;15.90;59.60
3548;DHT22;1788;49.400;11.092;2023-05-07T05:32:52;16.00;59.60
3548;DHT22;1788;49.400;11.092;2023-05-07T05:35:19;16.10;59.60
3548;DHT22;1788;49.400;11.092;2023-05-07T05:37:46;16.20;59.60
3548;DHT22;1788;49.400;11.092;2023-05-07T05:40:12;16.30;59.60
3548;DHT22;1788;49.400;11.092;2023-05-07T05:42:39;16.40;59.50
3548;DHT22;1788;49.400;11.092;2023-05-07T05:45:06;16.40;59.30
3548;DHT22;1788;49.400;11.092;2023-05-07T05:47:33;16.40;59.30
3548;DHT22;1788;49.400;11.092;2023-05-07T05:50:00;16.50;59.60
3548;DHT22;1788;49.400;11.092;2023-05-07T05:52:27;16.50;59.10
3548;DHT22;1788;49.400;11.092;2023-05-07T05:54:54;16.60;59.10
3548;DHT22;1788;49.400;11.092;2023-05-07T05:57:21;16.60;59.10
3548;DHT22;1788;49.400;11.092;2023-05-07T05:59:47;16.70;59.40
3548;DHT22;1788;49.400;11.092;2023-05-07T06:02:15;16.70;58.90
3548;DHT22;1788;49.400;11.092;2023-05-07T06:04:42;16.80;58.90
3548;DHT22;1788;49.400;11.092;2023-05-07T06:07:09;16.90;59.30
3548;DHT22;1788;49.400;11.092;2023-05-07T06:09:36;16.80;58.70
3548;DHT22;1788;49.400;11.092;2023-05-07T06:12:03;16.90;58.60
3548;DHT22;1788;49.400;11.092;2023-05-07T06:14:30;16.90;58.60
3548;DHT22;1788;49.400;11.092;2023-05-07T06:16:57;17.00;59.00
3548;DHT22;1788;49.400;11.092;2023-05-07T06:19:24;17.00;58.50
3548;DHT22;1788;49.400;11.092;2023-05-07T06:21:50;17.10;58.60
3548;DHT22;1788;49.400;11.092;2023-05-07T06:24:17;17.10;58.60
3548;DHT22;1788;49.400;11.092;2023-05-07T06:26:44;17.20;58.60
3548;DHT22;1788;49.400;11.092;2023-05-07T06:29:10;17.20;58.40
3548;DHT22;1788;49.400;11.092;2023-05-07T06:31:38;17.40;59.00
3548;DHT22;1788;49.400;11.092;2023-05-07T06:34:04;17.30;58.40
3548;DHT22;1788;49.400;11.092;2023-05-07T06:36:31;17.40;58.30
3548;DHT22;1788;49.400;11.092;2023-05-07T06:38:58;17.50;58.30
3548;DHT22;1788;49.400;11.092;2023-05-07T06:41:25;17.40;58.20
3548;DHT22;1788;49.400;11.092;2023-05-07T06:43:53;17.60;58.70
3548;DHT22;1788;49.400;11.092;2023-05-07T06:46:20;17.60;58.20
3548;DHT22;1788;49.400;11.092;2023-05-07T06:48:46;17.60;58.00
3548;DHT22;1788;49.400;11.092;2023-05-07T06:51:13;17.70;58.00
3548;DHT22;1788;49.400;11.092;2023-05-07T06:53:40;17.80;58.00
3548;DHT22;1788;49.400;11.092;2023-05-07T06:56:07;17.80;58.00
3548;DHT22;1788;49.400;11.092;2023-05-07T06:58:34;18.00;58.00
3548;DHT22;1788;49.400;11.092;2023-05-07T07:01:01;18.00;57.90
3548;DHT22;1788;49.400;11.092;2023-05-07T07:03:30;18.10;57.90
3548;DHT22;1788;49.400;11.092;2023-05-07T07:05:57;18.40;58.00
3548;DHT22;1788;49.400;11.092;2023-05-07T07:08:24;18.30;57.90
3548;DHT22;1788;49.400;11.092;2023-05-07T07:10:51;18.60;57.70
3548;DHT22;1788;49.400;11.092;2023-05-07T07:13:18;18.60;57.70
3548;DHT22;1788;49.400;11.092;2023-05-07T07:15:45;18.70;57.60
3548;DHT22;1788;49.400;11.092;2023-05-07T07:18:12;18.80;57.50
3548;DHT22;1788;49.400;11.092;2023-05-07T07:20:39;18.80;57.50
3548;DHT22;1788;49.400;11.092;2023-05-07T07:23:07;19.00;57.40
3548;DHT22;1788;49.400;11.092;2023-05-07T07:25:34;18.90;57.30
3548;DHT22;1788;49.400;11.092;2023-05-07T07:28:00;19.00;57.20
3548;DHT22;1788;49.400;11.092;2023-05-07T07:30:28;19.10;57.00
3548;DHT22;1788;49.400;11.092;2023-05-07T07:32:54;19.10;57.00
3548;DHT22;1788;49.400;11.092;2023-05-07T07:35:22;19.30;56.90
3548;DHT22;1788;49.400;11.092;2023-05-07T07:37:48;19.30;56.90
3548;DHT22;1788;49.400;11.092;2023-05-07T07:40:15;19.40;56.80
3548;DHT22;1788;49.400;11.092;2023-05-07T07:42:41;19.50;56.70
3548;DHT22;1788;49.400;11.092;2023-05-07T07:45:08;19.70;56.60
3548;DHT22;1788;49.400;11.092;2023-05-07T07:47:35;19.80;56.50
3548;DHT22;1788;49.400;11.092;2023-05-07T07:50:01;19.80;56.30
3548;DHT22;1788;49.400;11.092;2023-05-07T07:52:28;19.90;56.00
3548;DHT22;1788;49.400;11.092;2023-05-07T07:54:54;19.90;55.90
3548;DHT22;1788;49.400;11.092;2023-05-07T07:57:22;19.90;55.80
3548;DHT22;1788;49.400;11.092;2023-05-07T07:59:49;19.90;55.80
3548;DHT22;1788;49.400;11.092;2023-05-07T08:02:16;20.00;56.20
3548;DHT22;1788;49.400;11.092;2023-05-07T08:04:42;20.00;55.60
3548;DHT22;1788;49.400;11.092;2023-05-07T08:07:10;20.10;55.50
3548;DHT22;1788;49.400;11.092;2023-05-07T08:09:37;20.10;55.30
3548;DHT22;1788;49.400;11.092;2023-05-07T08:12:03;20.10;55.20
3548;DHT22;1788;49.400;11.092;2023-05-07T08:14:31;20.10;55.00
3548;DHT22;1788;49.400;11.092;2023-05-07T08:16:58;20.20;55.10
3548;DHT22;1788;49.400;11.092;2023-05-07T08:19:25;20.40;55.10
3548;DHT22;1788;49.400;11.092;2023-05-07T08:21:51;20.50;55.00
3548;DHT22;1788;49.400;11.092;2023-05-07T08:24:18;20.70;54.80
3548;DHT22;1788;49.400;11.092;2023-05-07T08:26:44;20.80;54.50
3548;DHT22;1788;49.400;11.092;2023-05-07T08:29:11;20.90;54.10
3548;DHT22;1788;49.400;11.092;2023-05-07T08:31:38;20.90;53.80
3548;DHT22;1788;49.400;11.092;2023-05-07T08:34:04;21.00;53.80
3548;DHT22;1788;49.400;11.092;2023-05-07T08:36:32;21.00;53.70
3548;DHT22;1788;49.400;11.092;2023-05-07T08:38:59;21.00;53.50
3548;DHT22;1788;49.400;11.092;2023-05-07T08:41:25;21.10;53.40
3548;DHT22;1788;49.400;11.092;2023-05-07T08:43:51;21.10;53.30
3548;DHT22;1788;49.400;11.092;2023-05-07T08:46:19;21.10;53.20
3548;DHT22;1788;49.400;11.092;2023-05-07T08:51:13;21.40;53.00
3548;DHT22;1788;49.400;11.092;2023-05-07T08:56:06;21.70;52.70
3548;DHT22;1788;49.400;11.092;2023-05-07T08:58:32;21.80;52.40
3548;DHT22;1788;49.400;11.092;2023-05-07T09:01:01;22.00;52.00
3548;DHT22;1788;49.400;11.092;2023-05-07T09:03:26;22.00;52.00
3548;DHT22;1788;49.400;11.092;2023-05-07T09:05:54;22.20;52.20
3548;DHT22;1788;49.400;11.092;2023-05-07T09:08:23;22.20;51.80
3548;DHT22;1788;49.400;11.092;2023-05-07T09:10:48;22.30;51.80
3548;DHT22;1788;49.400;11.092;2023-05-07T09:13:15;22.40;51.80
3548;DHT22;1788;49.400;11.092;2023-05-07T09:15:42;22.60;51.90
3548;DHT22;1788;49.400;11.092;2023-05-07T09:18:08;22.80;51.90
3548;DHT22;1788;49.400;11.092;2023-05-07T09:20:36;23.10;51.60
3548;DHT22;1788;49.400;11.092;2023-05-07T09:23:02;23.10;51.60
3548;DHT22;1788;49.400;11.092;2023-05-07T09:25:31;23.30;51.20
3548;DHT22;1788;49.400;11.092;2023-05-07T09:27:59;23.30;51.20
3548;DHT22;1788;49.400;11.092;2023-05-07T09:30:27;23.40;51.00
3548;DHT22;1788;49.400;11.092;2023-05-07T09:32:50;23.50;50.80
3548;DHT22;1788;49.400;11.092;2023-05-07T09:35:17;23.70;50.60
3548;DHT22;1788;49.400;11.092;2023-05-07T09:37:43;23.80;50.40
3548;DHT22;1788;49.400;11.092;2023-05-07T09:40:19;24.00;50.10
3548;DHT22;1788;49.400;11.092;2023-05-07T09:42:37;24.10;49.30
3548;DHT22;1788;49.400;11.092;2023-05-07T09:45:05;24.10;49.30
3548;DHT22;1788;49.400;11.092;2023-05-07T09:47:32;24.20;49.10
3548;DHT22;1788;49.400;11.092;2023-05-07T09:49:57;24.20;48.90
3548;DHT22;1788;49.400;11.092;2023-05-07T09:52:24;24.20;48.70
3548;DHT22;1788;49.400;11.092;2023-05-07T09:54:51;24.20;48.60
3548;DHT22;1788;49.400;11.092;2023-05-07T09:57:18;24.30;48.40
3548;DHT22;1788;49.400;11.092;2023-05-07T09:59:44;24.30;48.40
3548;DHT22;1788;49.400;11.092;2023-05-07T10:02:11;24.40;48.10
3548;DHT22;1788;49.400;11.092;2023-05-07T10:04:38;24.40;47.70
3548;DHT22;1788;49.400;11.092;2023-05-07T10:07:04;24.40;47.50
3548;DHT22;1788;49.400;11.092;2023-05-07T10:09:31;24.40;47.20
3548;DHT22;1788;49.400;11.092;2023-05-07T10:11:58;24.50;47.00
3548;DHT22;1788;49.400;11.092;2023-05-07T10:14:24;24.50;46.90
3548;DHT22;1788;49.400;11.092;2023-05-07T10:16:51;24.70;47.00
3548;DHT22;1788;49.400;11.092;2023-05-07T10:19:17;24.80;46.70
3548;DHT22;1788;49.400;11.092;2023-05-07T10:21:45;25.00;46.50
3548;DHT22;1788;49.400;11.092;2023-05-07T10:24:15;25.10;46.10
3548;DHT22;1788;49.400;11.092;2023-05-07T10:26:37;25.10;45.80
3548;DHT22;1788;49.400;11.092;2023-05-07T10:29:07;25.40;45.40
3548;DHT22;1788;49.400;11.092;2023-05-07T10:33:59;25.50;44.70
3548;DHT22;1788;49.400;11.092;2023-05-07T10:36:27;25.50;44.60
3548;DHT22;1788;49.400;11.092;2023-05-07T10:38:54;25.60;44.50
3548;DHT22;1788;49.400;11.092;2023-05-07T10:41:21;25.60;44.30
3548;DHT22;1788;49.400;11.092;2023-05-07T10:43:48;25.70;44.30
3548;DHT22;1788;49.400;11.092;2023-05-07T10:46:16;25.80;44.00
3548;DHT22;1788;49.400;11.092;2023-05-07T10:53:36;25.70;43.90
3548;DHT22;1788;49.400;11.092;2023-05-07T10:58:30;25.60;43.90
3548;DHT22;1788;49.400;11.092;2023-05-07T11:00:58;25.60;44.00
3548;DHT22;1788;49.400;11.092;2023-05-07T11:03:24;25.50;43.90
3548;DHT22;1788;49.400;11.092;2023-05-07T11:08:17;25.30;43.80
3548;DHT22;1788;49.400;11.092;2023-05-07T11:13:10;25.40;43.50
3548;DHT22;1788;49.400;11.092;2023-05-07T11:15:38;25.50;43.10
3548;DHT22;1788;49.400;11.092;2023-05-07T11:18:04;25.50;43.10
3548;DHT22;1788;49.400;11.092;2023-05-07T11:22:58;25.60;43.10
3548;DHT22;1788;49.400;11.092;2023-05-07T11:25:25;25.70;43.10
3548;DHT22;1788;49.400;11.092;2023-05-07T11:27:51;25.70;43.10
3548;DHT22;1788;49.400;11.092;2023-05-07T11:30:18;25.60;43.00
3548;DHT22;1788;49.400;11.092;2023-05-07T11:32:47;25.50;42.50
3548;DHT22;1788;49.400;11.092;2023-05-07T11:35:12;25.50;42.50
3548;DHT22;1788;49.400;11.092;2023-05-07T11:37:40;25.30;42.80
3548;DHT22;1788;49.400;11.092;2023-05-07T11:40:06;25.30;42.80
3548;DHT22;1788;49.400;11.092;2023-05-07T11:42:35;25.20;43.30
3548;DHT22;1788;49.400;11.092;2023-05-07T11:45:01;25.20;43.30
3548;DHT22;1788;49.400;11.092;2023-05-07T11:47:30;25.10;43.50
3548;DHT22;1788;49.400;11.092;2023-05-07T11:49:55;25.00;43.60
3548;DHT22;1788;49.400;11.092;2023-05-07T11:52:24;24.90;44.20
3548;DHT22;1788;49.400;11.092;2023-05-07T11:57:19;24.80;43.80
3548;DHT22;1788;49.400;11.092;2023-05-07T11:59:45;24.70;43.90
3548;DHT22;1788;49.400;11.092;2023-05-07T12:02:14;24.70;44.00
3548;DHT22;1788;49.400;11.092;2023-05-07T12:04:38;24.70;44.10
3548;DHT22;1788;49.400;11.092;2023-05-07T12:07:11;24.70;44.10
3548;DHT22;1788;49.400;11.092;2023-05-07T12:09:34;24.70;44.00
3548;DHT22;1788;49.400;11.092;2023-05-07T12:14:28;24.80;44.00
3548;DHT22;1788;49.400;11.092;2023-05-07T12:16:56;24.80;44.00
3548;DHT22;1788;49.400;11.092;2023-05-07T12:19:22;24.80;43.90
3548;DHT22;1788;49.400;11.092;2023-05-07T12:21:49;24.80;44.40
3548;DHT22;1788;49.400;11.092;2023-05-07T12:24:15;24.90;43.80
3548;DHT22;1788;49.400;11.092;2023-05-07T12:26:43;24.90;43.70
3548;DHT22;1788;49.400;11.092;2023-05-07T12:29:09;25.00;43.70
3548;DHT22;1788;49.400;11.092;2023-05-07T12:31:36;24.90;43.60
3548;DHT22;1788;49.400;11.092;2023-05-07T12:34:03;24.90;43.50
3548;DHT22;1788;49.400;11.092;2023-05-07T12:36:36;24.90;43.50
3548;DHT22;1788;49.400;11.092;2023-05-07T12:38:56;24.90;43.40
3548;DHT22;1788;49.400;11.092;2023-05-07T12:41:23;24.80;43.40
3548;DHT22;1788;49.400;11.092;2023-05-07T12:43:50;24.70;43.30
3548;DHT22;1788;49.400;11.092;2023-05-07T12:46:16;24.80;43.40
3548;DHT22;1788;49.400;11.092;2023-05-07T12:48:44;24.70;43.40
3548;DHT22;1788;49.400;11.092;2023-05-07T12:51:10;24.60;43.30
3548;DHT22;1788;49.400;11.092;2023-05-07T12:53:39;24.60;43.20
3548;DHT22;1788;49.400;11.092;2023-05-07T12:56:04;24.60;43.20
3548;DHT22;1788;49.400;11.092;2023-05-07T12:58:33;24.70;43.20
3548;DHT22;1788;49.400;11.092;2023-05-07T13:00:58;24.70;43.10
3548;DHT22;1788;49.400;11.092;2023-05-07T13:05:51;25.50;42.60
3548;DHT22;1788;49.400;11.092;2023-05-07T13:10:45;26.50;41.70
3548;DHT22;1788;49.400;11.092;2023-05-07T13:13:13;27.40;41.30
3548;DHT22;1788;49.400;11.092;2023-05-07T13:15:39;27.40;40.80
3548;DHT22;1788;49.400;11.092;2023-05-07T13:18:07;28.40;39.80
3548;DHT22;1788;49.400;11.092;2023-05-07T13:20:33;28.30;39.80
3548;DHT22;1788;49.400;11.092;2023-05-07T13:23:01;28.60;39.30
3548;DHT22;1788;49.400;11.092;2023-05-07T13:25:27;28.60;39.30
3548;DHT22;1788;49.400;11.092;2023-05-07T13:27:56;28.90;39.10
3548;DHT22;1788;49.400;11.092;2023-05-07T13:30:22;29.10;38.60
3548;DHT22;1788;49.400;11.092;2023-05-07T13:32:49;29.50;38.20
3548;DHT22;1788;49.400;11.092;2023-05-07T13:35:16;30.00;37.60
3548;DHT22;1788;49.400;11.092;2023-05-07T13:37:42;30.60;37.10
3548;DHT22;1788;49.400;11.092;2023-05-07T13:40:10;31.00;36.10
3548;DHT22;1788;49.400;11.092;2023-05-07T13:42:36;30.90;36.10
3548;DHT22;1788;49.400;11.092;2023-05-07T13:45:04;30.30;36.30
3548;DHT22;1788;49.400;11.092;2023-05-07T13:47:30;30.30;36.20
3548;DHT22;1788;49.400;11.092;2023-05-07T13:49:58;29.60;36.90
3548;DHT22;1788;49.400;11.092;2023-05-07T13:52:25;29.50;36.80
3548;DHT22;1788;49.400;11.092;2023-05-07T13:54:52;29.20;37.10
3548;DHT22;1788;49.400;11.092;2023-05-07T13:57:18;29.00;37.40
3548;DHT22;1788;49.400;11.092;2023-05-07T13:59:45;28.60;37.30
3548;DHT22;1788;49.400;11.092;2023-05-07T14:02:12;28.30;37.30
3548;DHT22;1788;49.400;11.092;2023-05-07T14:04:40;27.70;37.80
3548;DHT22;1788;49.400;11.092;2023-05-07T14:07:06;27.70;37.70
3548;DHT22;1788;49.400;11.092;2023-05-07T14:09:33;27.50;38.00
3548;DHT22;1788;49.400;11.092;2023-05-07T14:11:59;27.30;38.20
3548;DHT22;1788;49.400;11.092;2023-05-07T14:14:26;27.10;38.20
3548;DHT22;1788;49.400;11.092;2023-05-07T14:16:53;26.70;38.70
3548;DHT22;1788;49.400;11.092;2023-05-07T14:19:20;26.70;38.70
3548;DHT22;1788;49.400;11.092;2023-05-07T14:21:47;26.40;39.00
3548;DHT22;1788;49.400;11.092;2023-05-07T14:24:14;26.40;39.00
3548;DHT22;1788;49.400;11.092;2023-05-07T14:26:41;26.20;39.10
3548;DHT22;1788;49.400;11.092;2023-05-07T14:29:07;26.10;39.30
3548;DHT22;1788;49.400;11.092;2023-05-07T14:31:34;25.90;39.40
3548;DHT22;1788;49.400;11.092;2023-05-07T14:34:01;25.80;39.60
3548;DHT22;1788;49.400;11.092;2023-05-07T14:36:28;25.60;40.00
3548;DHT22;1788;49.400;11.092;2023-05-07T14:38:55;25.60;40.00
3548;DHT22;1788;49.400;11.092;2023-05-07T14:41:22;25.30;40.10
3548;DHT22;1788;49.400;11.092;2023-05-07T14:43:48;25.30;40.10
3548;DHT22;1788;49.400;11.092;2023-05-07T14:46:17;25.10;40.30
3548;DHT22;1788;49.400;11.092;2023-05-07T14:48:44;24.90;40.80
3548;DHT22;1788;49.400;11.092;2023-05-07T14:51:11;24.90;40.70
3548;DHT22;1788;49.400;11.092;2023-05-07T14:53:40;24.80;40.70
3548;DHT22;1788;49.400;11.092;2023-05-07T14:56:07;24.70;40.90
3548;DHT22;1788;49.400;11.092;2023-05-07T14:58:34;24.60;41.00
3548;DHT22;1788;49.400;11.092;2023-05-07T15:01:01;24.60;41.20
3548;DHT22;1788;49.400;11.092;2023-05-07T15:03:27;24.50;41.40
3548;DHT22;1788;49.400;11.092;2023-05-07T15:05:54;24.50;41.60
3548;DHT22;1788;49.400;11.092;2023-05-07T15:08:21;24.50;41.70
3548;DHT22;1788;49.400;11.092;2023-05-07T15:10:47;24.50;41.80
3548;DHT22;1788;49.400;11.092;2023-05-07T15:13:15;24.50;42.20
3548;DHT22;1788;49.400;11.092;2023-05-07T15:15:43;24.50;42.20
3548;DHT22;1788;49.400;11.092;2023-05-07T15:18:10;24.50;42.20
3548;DHT22;1788;49.400;11.092;2023-05-07T15:20:37;24.50;42.10
3548;DHT22;1788;49.400;11.092;2023-05-07T15:23:04;24.40;42.10
3548;DHT22;1788;49.400;11.092;2023-05-07T15:25:30;24.40;42.20
3548;DHT22;1788;49.400;11.092;2023-05-07T15:27:57;24.40;42.30
3548;DHT22;1788;49.400;11.092;2023-05-07T15:30:24;24.40;42.60
3548;DHT22;1788;49.400;11.092;2023-05-07T15:32:51;24.40;42.60
3548;DHT22;1788;49.400;11.092;2023-05-07T15:35:18;24.40;42.50
3548;DHT22;1788;49.400;11.092;2023-05-07T15:37:45;24.40;42.50
3548;DHT22;1788;49.400;11.092;2023-05-07T15:40:13;24.40;42.50
3548;DHT22;1788;49.400;11.092;2023-05-07T15:42:40;24.50;42.50
3548;DHT22;1788;49.400;11.092;2023-05-07T15:45:06;24.50;42.50
3548;DHT22;1788;49.400;11.092;2023-05-07T15:47:33;24.50;42.40
3548;DHT22;1788;49.400;11.092;2023-05-07T15:50:00;24.50;42.40
3548;DHT22;1788;49.400;11.092;2023-05-07T15:52:27;24.60;42.60
3548;DHT22;1788;49.400;11.092;2023-05-07T15:54:54;24.60;42.60
3548;DHT22;1788;49.400;11.092;2023-05-07T15:57:20;24.60;42.50
3548;DHT22;1788;49.400;11.092;2023-05-07T15:59:47;24.60;42.50
3548;DHT22;1788;49.400;11.092;2023-05-07T16:02:13;24.60;42.50
3548;DHT22;1788;49.400;11.092;2023-05-07T16:04:40;24.60;42.50
3548;DHT22;1788;49.400;11.092;2023-05-07T16:07:07;24.60;42.50
3548;DHT22;1788;49.400;11.092;2023-05-07T16:09:34;24.40;42.50
3548;DHT22;1788;49.400;11.092;2023-05-07T16:12:01;24.40;42.50
3548;DHT22;1788;49.400;11.092;2023-05-07T16:14:28;24.30;42.70
3548;DHT22;1788;49.400;11.092;2023-05-07T16:16:55;24.30;42.70